Polonia International Airport
WIMM : now visible

Airfield :











YOU CAN JOIN US ON...

 
LOGIN :

Register | Disclaimer

   EN    FR    IT 

 









Legend :    VFR   Marginal VFR   IFR   Intensive IFR   Very Intensive IFR
Visi :
Ceiling :
>= 8 km
>= 3000ft
5 to 8 km
1000 to 3000 ft
1500m to 5 km
500 to 1000 ft
800 to 1500m
200 to 500 ft
< 800m
< 200 ft
Symbols :   Thunderstorms  Fog  Heavy snow  Heavy precipitations  Wind > 20 kt






- Airport Elevation : 114 ft
- IATA code : MES


WIMM - Polonia International

CURRENT METAR :
  • 081830Z 20003KT 6000 SCT017 27/26 Q1010 NOSIG

EXPIRED METARs :
  • 081800Z 21004KT 6000 SCT017 27/26 Q1011 NOSIG
  • 081730Z 20003KT 6000 SCT017 27/25 Q1011 NOSIG
  • 081700Z 20003KT 6000 SCT017 27/25 Q1011 NOSIG
  • 081630Z AUTO 23001KT 6000 NCD 27/26 Q1012
  • 081600Z 25003KT 5000 HZ SCT017 27/26 Q1011 NOSIG

TAF TAF WIMM
Valid from the 08 at 18:00 until the 09 at 18:00 UTC


081700Z 0818/0918 VRB03KT 3000 BR SCT018
BECMG 0902/0904 36010KT 8000



MET'MAP, your aeronautical weather chart ! - Copyright ORBIFLY December 2007 - Disclaimer

ORBIFLY MET'MAP TEAM :

Programming & Development : Alexandra Zaïnal
Concept & original design : Baudouin d'Aumeries
Assistance for programming : Marc-Olivier Méhu
Technical & hardware support : Manuel Goepfert

Contact : metmap@orbifly.com




SOURCES & CREDITS :

   NOAA       Earth
Advisory